sensor_id;sensor_type;location;lat;lon;timestamp;temperature;humidity
3699;DHT22;1865;50.918;7.092;2022-12-13T00:01:46;1.70;51.80
3699;DHT22;1865;50.918;7.092;2022-12-13T00:04:12;1.60;51.90
3699;DHT22;1865;50.918;7.092;2022-12-13T00:06:38;1.50;52.10
3699;DHT22;1865;50.918;7.092;2022-12-13T00:09:04;1.50;52.10
3699;DHT22;1865;50.918;7.092;2022-12-13T00:11:30;1.60;51.90
3699;DHT22;1865;50.918;7.092;2022-12-13T00:13:56;1.60;51.70
3699;DHT22;1865;50.918;7.092;2022-12-13T00:16:23;1.60;51.50
3699;DHT22;1865;50.918;7.092;2022-12-13T00:18:51;1.50;51.70
3699;DHT22;1865;50.918;7.092;2022-12-13T00:21:19;1.50;52.60
3699;DHT22;1865;50.918;7.092;2022-12-13T00:23:45;1.50;52.00
3699;DHT22;1865;50.918;7.092;2022-12-13T00:26:13;1.50;52.10
3699;DHT22;1865;50.918;7.092;2022-12-13T00:28:40;1.50;51.60
3699;DHT22;1865;50.918;7.092;2022-12-13T00:31:06;1.50;52.20
3699;DHT22;1865;50.918;7.092;2022-12-13T00:33:32;1.50;51.30
3699;DHT22;1865;50.918;7.092;2022-12-13T00:35:57;1.40;51.20
3699;DHT22;1865;50.918;7.092;2022-12-13T00:38:23;1.40;51.20
3699;DHT22;1865;50.918;7.092;2022-12-13T00:40:49;1.30;51.30
3699;DHT22;1865;50.918;7.092;2022-12-13T00:43:16;1.20;51.50
3699;DHT22;1865;50.918;7.092;2022-12-13T00:45:41;1.10;52.00
3699;DHT22;1865;50.918;7.092;2022-12-13T00:48:07;1.20;52.10
3699;DHT22;1865;50.918;7.092;2022-12-13T00:50:33;1.20;52.20
3699;DHT22;1865;50.918;7.092;2022-12-13T00:53:00;1.20;51.50
3699;DHT22;1865;50.918;7.092;2022-12-13T00:55:26;1.20;51.60
3699;DHT22;1865;50.918;7.092;2022-12-13T00:57:52;1.20;51.50
3699;DHT22;1865;50.918;7.092;2022-12-13T01:00:18;1.20;50.90
3699;DHT22;1865;50.918;7.092;2022-12-13T01:02:43;1.10;50.90
3699;DHT22;1865;50.918;7.092;2022-12-13T01:05:10;1.00;51.00
3699;DHT22;1865;50.918;7.092;2022-12-13T01:07:36;1.00;50.70
3699;DHT22;1865;50.918;7.092;2022-12-13T01:10:03;1.00;51.30
3699;DHT22;1865;50.918;7.092;2022-12-13T01:12:29;0.90;51.10
3699;DHT22;1865;50.918;7.092;2022-12-13T01:14:55;0.90;51.60
3699;DHT22;1865;50.918;7.092;2022-12-13T01:17:20;0.90;51.40
3699;DHT22;1865;50.918;7.092;2022-12-13T01:19:46;0.90;51.40
3699;DHT22;1865;50.918;7.092;2022-12-13T01:22:11;0.90;51.40
3699;DHT22;1865;50.918;7.092;2022-12-13T01:24:37;1.00;51.30
3699;DHT22;1865;50.918;7.092;2022-12-13T01:27:03;1.00;50.70
3699;DHT22;1865;50.918;7.092;2022-12-13T01:29:29;0.90;51.50
3699;DHT22;1865;50.918;7.092;2022-12-13T01:31:54;1.00;51.70
3699;DHT22;1865;50.918;7.092;2022-12-13T01:34:22;1.10;51.50
3699;DHT22;1865;50.918;7.092;2022-12-13T01:36:48;1.10;51.30
3699;DHT22;1865;50.918;7.092;2022-12-13T01:39:17;1.20;51.40
3699;DHT22;1865;50.918;7.092;2022-12-13T01:41:46;1.20;51.50
3699;DHT22;1865;50.918;7.092;2022-12-13T01:47:19;1.30;50.10
3699;DHT22;1865;50.918;7.092;2022-12-13T01:49:46;1.20;50.40
3699;DHT22;1865;50.918;7.092;2022-12-13T01:52:13;1.30;50.90
3699;DHT22;1865;50.918;7.092;2022-12-13T01:54:43;1.30;50.20
3699;DHT22;1865;50.918;7.092;2022-12-13T01:57:11;1.30;49.80
3699;DHT22;1865;50.918;7.092;2022-12-13T01:59:39;1.30;50.20
3699;DHT22;1865;50.918;7.092;2022-12-13T02:02:06;1.20;50.20
3699;DHT22;1865;50.918;7.092;2022-12-13T02:04:57;1.10;50.00
3699;DHT22;1865;50.918;7.092;2022-12-13T02:07:29;1.10;50.30
3699;DHT22;1865;50.918;7.092;2022-12-13T02:09:57;1.10;50.00
3699;DHT22;1865;50.918;7.092;2022-12-13T02:12:26;1.00;49.90
3699;DHT22;1865;50.918;7.092;2022-12-13T02:14:52;1.00;49.90
3699;DHT22;1865;50.918;7.092;2022-12-13T02:31:55;0.70;51.30
3699;DHT22;1865;50.918;7.092;2022-12-13T02:34:31;0.70;51.40
3699;DHT22;1865;50.918;7.092;2022-12-13T02:37:17;0.70;51.10
3699;DHT22;1865;50.918;7.092;2022-12-13T02:40:35;0.80;51.10
3699;DHT22;1865;50.918;7.092;2022-12-13T02:42:38;0.80;50.80
3699;DHT22;1865;50.918;7.092;2022-12-13T02:45:23;1.00;50.30
3699;DHT22;1865;50.918;7.092;2022-12-13T02:47:53;1.00;49.90
3699;DHT22;1865;50.918;7.092;2022-12-13T02:50:21;0.90;50.10
3699;DHT22;1865;50.918;7.092;2022-12-13T02:52:48;0.80;50.40
3699;DHT22;1865;50.918;7.092;2022-12-13T02:55:15;0.80;50.10
3699;DHT22;1865;50.918;7.092;2022-12-13T02:57:43;0.80;50.50
3699;DHT22;1865;50.918;7.092;2022-12-13T03:00:20;0.70;50.80
3699;DHT22;1865;50.918;7.092;2022-12-13T03:03:06;0.70;51.00
3699;DHT22;1865;50.918;7.092;2022-12-13T03:17:43;0.90;50.80
3699;DHT22;1865;50.918;7.092;2022-12-13T03:20:17;1.00;50.20
3699;DHT22;1865;50.918;7.092;2022-12-13T03:22:46;1.10;49.50
3699;DHT22;1865;50.918;7.092;2022-12-13T03:25:13;1.10;49.20
3699;DHT22;1865;50.918;7.092;2022-12-13T03:27:39;1.00;49.70
3699;DHT22;1865;50.918;7.092;2022-12-13T03:30:05;1.00;49.60
3699;DHT22;1865;50.918;7.092;2022-12-13T03:32:31;1.00;49.00
3699;DHT22;1865;50.918;7.092;2022-12-13T03:34:56;1.00;49.70
3699;DHT22;1865;50.918;7.092;2022-12-13T03:37:22;1.00;49.00
3699;DHT22;1865;50.918;7.092;2022-12-13T03:39:47;1.00;49.40
3699;DHT22;1865;50.918;7.092;2022-12-13T03:42:13;1.00;49.70
3699;DHT22;1865;50.918;7.092;2022-12-13T03:44:39;0.90;49.10
3699;DHT22;1865;50.918;7.092;2022-12-13T03:47:04;0.90;49.50
3699;DHT22;1865;50.918;7.092;2022-12-13T03:49:30;0.90;49.40
3699;DHT22;1865;50.918;7.092;2022-12-13T03:51:55;0.90;49.70
3699;DHT22;1865;50.918;7.092;2022-12-13T03:54:21;0.90;49.70
3699;DHT22;1865;50.918;7.092;2022-12-13T03:56:46;0.90;49.20
3699;DHT22;1865;50.918;7.092;2022-12-13T03:59:12;0.80;49.40
3699;DHT22;1865;50.918;7.092;2022-12-13T04:01:37;0.70;49.10
3699;DHT22;1865;50.918;7.092;2022-12-13T04:04:02;0.70;49.70
3699;DHT22;1865;50.918;7.092;2022-12-13T04:06:28;0.70;49.50
3699;DHT22;1865;50.918;7.092;2022-12-13T04:08:53;0.60;49.00
3699;DHT22;1865;50.918;7.092;2022-12-13T04:11:19;0.50;49.80
3699;DHT22;1865;50.918;7.092;2022-12-13T04:14:03;0.50;50.30
3699;DHT22;1865;50.918;7.092;2022-12-13T04:16:29;0.50;50.20
3699;DHT22;1865;50.918;7.092;2022-12-13T04:18:54;0.50;50.20
3699;DHT22;1865;50.918;7.092;2022-12-13T04:21:19;0.40;50.20
3699;DHT22;1865;50.918;7.092;2022-12-13T04:23:45;0.50;50.50
3699;DHT22;1865;50.918;7.092;2022-12-13T04:26:11;0.50;50.40
3699;DHT22;1865;50.918;7.092;2022-12-13T04:28:36;0.50;50.10
3699;DHT22;1865;50.918;7.092;2022-12-13T04:31:02;0.40;50.00
3699;DHT22;1865;50.918;7.092;2022-12-13T04:33:27;0.40;50.20
3699;DHT22;1865;50.918;7.092;2022-12-13T04:35:53;0.40;50.00
3699;DHT22;1865;50.918;7.092;2022-12-13T04:38:19;0.40;50.30
3699;DHT22;1865;50.918;7.092;2022-12-13T04:40:44;0.40;50.10
3699;DHT22;1865;50.918;7.092;2022-12-13T04:43:10;0.50;50.20
3699;DHT22;1865;50.918;7.092;2022-12-13T04:45:36;0.50;49.60
3699;DHT22;1865;50.918;7.092;2022-12-13T04:48:01;0.40;49.20
3699;DHT22;1865;50.918;7.092;2022-12-13T04:50:27;0.40;49.70
3699;DHT22;1865;50.918;7.092;2022-12-13T04:52:52;0.40;50.20
3699;DHT22;1865;50.918;7.092;2022-12-13T04:55:18;0.40;49.80
3699;DHT22;1865;50.918;7.092;2022-12-13T04:57:43;0.30;49.30
3699;DHT22;1865;50.918;7.092;2022-12-13T05:00:11;0.30;49.70
3699;DHT22;1865;50.918;7.092;2022-12-13T05:02:38;0.40;50.10
3699;DHT22;1865;50.918;7.092;2022-12-13T05:05:06;0.30;49.70
3699;DHT22;1865;50.918;7.092;2022-12-13T05:07:32;0.30;50.00
3699;DHT22;1865;50.918;7.092;2022-12-13T05:09:58;0.40;49.80
3699;DHT22;1865;50.918;7.092;2022-12-13T05:12:23;0.50;49.60
3699;DHT22;1865;50.918;7.092;2022-12-13T05:14:50;0.40;49.10
3699;DHT22;1865;50.918;7.092;2022-12-13T05:17:15;0.40;49.30
3699;DHT22;1865;50.918;7.092;2022-12-13T05:19:41;0.20;49.20
3699;DHT22;1865;50.918;7.092;2022-12-13T05:22:08;0.10;49.90
3699;DHT22;1865;50.918;7.092;2022-12-13T05:24:42;-0.10;49.70
3699;DHT22;1865;50.918;7.092;2022-12-13T05:27:10;-0.10;50.70
3699;DHT22;1865;50.918;7.092;2022-12-13T05:29:36;-0.10;50.20
3699;DHT22;1865;50.918;7.092;2022-12-13T05:32:02;-0.20;50.50
3699;DHT22;1865;50.918;7.092;2022-12-13T05:34:28;0.00;51.10
3699;DHT22;1865;50.918;7.092;2022-12-13T05:36:54;0.10;50.40
3699;DHT22;1865;50.918;7.092;2022-12-13T05:39:19;0.10;50.20
3699;DHT22;1865;50.918;7.092;2022-12-13T05:41:45;0.20;50.20
3699;DHT22;1865;50.918;7.092;2022-12-13T05:44:10;0.10;50.20
3699;DHT22;1865;50.918;7.092;2022-12-13T05:46:37;0.10;50.90
3699;DHT22;1865;50.918;7.092;2022-12-13T05:49:03;0.10;50.40
3699;DHT22;1865;50.918;7.092;2022-12-13T05:51:28;0.20;50.70
3699;DHT22;1865;50.918;7.092;2022-12-13T05:53:54;0.20;49.70
3699;DHT22;1865;50.918;7.092;2022-12-13T05:56:19;0.30;49.80
3699;DHT22;1865;50.918;7.092;2022-12-13T05:58:45;0.20;49.70
3699;DHT22;1865;50.918;7.092;2022-12-13T06:01:12;0.20;50.20
3699;DHT22;1865;50.918;7.092;2022-12-13T06:03:39;0.20;50.50
3699;DHT22;1865;50.918;7.092;2022-12-13T06:06:06;0.10;49.80
3699;DHT22;1865;50.918;7.092;2022-12-13T06:08:31;0.10;50.50
3699;DHT22;1865;50.918;7.092;2022-12-13T06:10:59;0.30;50.40
3699;DHT22;1865;50.918;7.092;2022-12-13T06:13:25;0.30;50.20
3699;DHT22;1865;50.918;7.092;2022-12-13T06:15:51;0.30;50.60
3699;DHT22;1865;50.918;7.092;2022-12-13T06:18:17;0.50;50.50
3699;DHT22;1865;50.918;7.092;2022-12-13T06:20:43;0.50;51.00
3699;DHT22;1865;50.918;7.092;2022-12-13T06:23:08;0.60;49.90
3699;DHT22;1865;50.918;7.092;2022-12-13T06:25:35;0.60;49.80
3699;DHT22;1865;50.918;7.092;2022-12-13T06:28:01;0.70;49.80
3699;DHT22;1865;50.918;7.092;2022-12-13T06:30:27;0.80;49.10
3699;DHT22;1865;50.918;7.092;2022-12-13T06:32:52;0.80;48.80
3699;DHT22;1865;50.918;7.092;2022-12-13T06:35:18;0.80;48.90
3699;DHT22;1865;50.918;7.092;2022-12-13T06:37:43;0.80;48.60
3699;DHT22;1865;50.918;7.092;2022-12-13T06:40:09;0.80;49.30
3699;DHT22;1865;50.918;7.092;2022-12-13T06:42:35;0.90;48.50
3699;DHT22;1865;50.918;7.092;2022-12-13T06:45:00;0.80;48.60
3699;DHT22;1865;50.918;7.092;2022-12-13T06:47:25;0.90;48.30
3699;DHT22;1865;50.918;7.092;2022-12-13T06:49:52;0.80;47.80
3699;DHT22;1865;50.918;7.092;2022-12-13T06:52:17;0.70;48.10
3699;DHT22;1865;50.918;7.092;2022-12-13T06:54:43;0.70;48.60
3699;DHT22;1865;50.918;7.092;2022-12-13T06:57:12;0.40;48.70
3699;DHT22;1865;50.918;7.092;2022-12-13T06:59:37;0.50;49.50
3699;DHT22;1865;50.918;7.092;2022-12-13T07:02:03;0.50;48.80
3699;DHT22;1865;50.918;7.092;2022-12-13T07:04:29;0.60;48.40
3699;DHT22;1865;50.918;7.092;2022-12-13T07:06:54;0.60;48.40
3699;DHT22;1865;50.918;7.092;2022-12-13T07:09:20;0.60;48.30
3699;DHT22;1865;50.918;7.092;2022-12-13T07:11:45;0.50;48.40
3699;DHT22;1865;50.918;7.092;2022-12-13T07:14:11;0.50;48.10
3699;DHT22;1865;50.918;7.092;2022-12-13T07:16:36;0.50;48.60
3699;DHT22;1865;50.918;7.092;2022-12-13T07:19:02;0.50;47.90
3699;DHT22;1865;50.918;7.092;2022-12-13T07:21:29;0.50;48.20
3699;DHT22;1865;50.918;7.092;2022-12-13T07:23:55;0.50;48.20
3699;DHT22;1865;50.918;7.092;2022-12-13T07:26:21;0.50;47.80
3699;DHT22;1865;50.918;7.092;2022-12-13T07:28:47;0.50;48.40
3699;DHT22;1865;50.918;7.092;2022-12-13T07:31:13;0.60;48.30
3699;DHT22;1865;50.918;7.092;2022-12-13T07:33:39;0.70;47.80
3699;DHT22;1865;50.918;7.092;2022-12-13T07:36:06;0.70;47.50
3699;DHT22;1865;50.918;7.092;2022-12-13T07:38:33;0.60;47.50
3699;DHT22;1865;50.918;7.092;2022-12-13T07:40:58;0.60;47.70
3699;DHT22;1865;50.918;7.092;2022-12-13T07:43:24;0.50;47.80
3699;DHT22;1865;50.918;7.092;2022-12-13T07:45:50;0.60;48.20
3699;DHT22;1865;50.918;7.092;2022-12-13T07:48:16;0.60;48.30
3699;DHT22;1865;50.918;7.092;2022-12-13T07:50:42;0.70;47.90
3699;DHT22;1865;50.918;7.092;2022-12-13T07:53:08;0.60;47.50
3699;DHT22;1865;50.918;7.092;2022-12-13T07:55:35;0.60;48.10
3699;DHT22;1865;50.918;7.092;2022-12-13T07:58:10;0.70;48.10
3699;DHT22;1865;50.918;7.092;2022-12-13T08:00:37;0.70;47.80
3699;DHT22;1865;50.918;7.092;2022-12-13T08:03:03;0.70;47.30
3699;DHT22;1865;50.918;7.092;2022-12-13T08:05:30;0.80;48.10
3699;DHT22;1865;50.918;7.092;2022-12-13T08:07:55;0.80;48.00
3699;DHT22;1865;50.918;7.092;2022-12-13T08:10:21;0.80;48.00
3699;DHT22;1865;50.918;7.092;2022-12-13T08:12:46;0.80;47.60
3699;DHT22;1865;50.918;7.092;2022-12-13T08:15:12;0.80;48.00
3699;DHT22;1865;50.918;7.092;2022-12-13T08:17:38;0.80;48.00
3699;DHT22;1865;50.918;7.092;2022-12-13T08:20:04;1.00;48.10
3699;DHT22;1865;50.918;7.092;2022-12-13T08:22:29;1.00;47.70
3699;DHT22;1865;50.918;7.092;2022-12-13T08:24:55;1.10;47.80
3699;DHT22;1865;50.918;7.092;2022-12-13T08:27:20;1.20;47.80
3699;DHT22;1865;50.918;7.092;2022-12-13T08:29:46;1.20;47.30
3699;DHT22;1865;50.918;7.092;2022-12-13T08:32:11;1.30;47.30
3699;DHT22;1865;50.918;7.092;2022-12-13T08:34:38;1.30;47.50
3699;DHT22;1865;50.918;7.092;2022-12-13T08:37:04;1.40;47.10
3699;DHT22;1865;50.918;7.092;2022-12-13T08:39:31;1.40;47.00
3699;DHT22;1865;50.918;7.092;2022-12-13T08:41:58;1.40;47.10
3699;DHT22;1865;50.918;7.092;2022-12-13T08:44:24;1.50;47.20
3699;DHT22;1865;50.918;7.092;2022-12-13T08:46:49;1.50;47.10
3699;DHT22;1865;50.918;7.092;2022-12-13T08:49:15;1.70;47.10
3699;DHT22;1865;50.918;7.092;2022-12-13T08:51:40;1.70;46.50
3699;DHT22;1865;50.918;7.092;2022-12-13T08:54:06;1.80;46.40
3699;DHT22;1865;50.918;7.092;2022-12-13T08:56:31;1.80;46.30
3699;DHT22;1865;50.918;7.092;2022-12-13T08:58:57;1.90;46.40
3699;DHT22;1865;50.918;7.092;2022-12-13T09:01:22;2.00;46.80
3699;DHT22;1865;50.918;7.092;2022-12-13T09:03:48;2.40;47.50
3699;DHT22;1865;50.918;7.092;2022-12-13T09:06:15;3.00;46.50
3699;DHT22;1865;50.918;7.092;2022-12-13T09:08:41;3.20;44.00
3699;DHT22;1865;50.918;7.092;2022-12-13T09:11:08;3.10;43.60
3699;DHT22;1865;50.918;7.092;2022-12-13T09:13:35;3.00;43.40
3699;DHT22;1865;50.918;7.092;2022-12-13T09:16:06;3.00;43.40
3699;DHT22;1865;50.918;7.092;2022-12-13T09:18:32;2.90;43.80
3699;DHT22;1865;50.918;7.092;2022-12-13T09:20:58;2.80;44.20
3699;DHT22;1865;50.918;7.092;2022-12-13T09:23:23;2.80;43.90
3699;DHT22;1865;50.918;7.092;2022-12-13T09:25:57;2.60;43.60
3699;DHT22;1865;50.918;7.092;2022-12-13T09:28:26;2.60;44.80
3699;DHT22;1865;50.918;7.092;2022-12-13T09:30:51;2.50;45.10
3699;DHT22;1865;50.918;7.092;2022-12-13T09:33:17;2.70;44.90
3699;DHT22;1865;50.918;7.092;2022-12-13T09:35:43;2.70;45.10
3699;DHT22;1865;50.918;7.092;2022-12-13T09:38:09;2.70;44.80
3699;DHT22;1865;50.918;7.092;2022-12-13T09:40:36;2.80;45.30
3699;DHT22;1865;50.918;7.092;2022-12-13T09:43:03;2.90;45.10
3699;DHT22;1865;50.918;7.092;2022-12-13T09:45:29;3.30;45.70
3699;DHT22;1865;50.918;7.092;2022-12-13T09:47:56;3.60;43.90
3699;DHT22;1865;50.918;7.092;2022-12-13T09:50:29;3.60;42.10
3699;DHT22;1865;50.918;7.092;2022-12-13T09:52:57;3.60;42.80
3699;DHT22;1865;50.918;7.092;2022-12-13T09:55:25;3.70;43.00
3699;DHT22;1865;50.918;7.092;2022-12-13T09:57:54;4.00;42.80
3699;DHT22;1865;50.918;7.092;2022-12-13T10:00:23;4.30;41.50
3699;DHT22;1865;50.918;7.092;2022-12-13T10:02:52;4.60;41.30
3699;DHT22;1865;50.918;7.092;2022-12-13T10:05:29;4.90;40.20
3699;DHT22;1865;50.918;7.092;2022-12-13T10:07:59;5.00;39.40
3699;DHT22;1865;50.918;7.092;2022-12-13T10:10:25;5.00;38.90
3699;DHT22;1865;50.918;7.092;2022-12-13T10:12:56;5.20;39.20
3699;DHT22;1865;50.918;7.092;2022-12-13T10:15:25;5.50;38.50
3699;DHT22;1865;50.918;7.092;2022-12-13T10:17:52;5.80;38.20
3699;DHT22;1865;50.918;7.092;2022-12-13T10:20:19;6.00;38.20
3699;DHT22;1865;50.918;7.092;2022-12-13T10:22:45;6.50;36.50
3699;DHT22;1865;50.918;7.092;2022-12-13T10:25:11;6.70;35.60
3699;DHT22;1865;50.918;7.092;2022-12-13T10:27:39;6.70;35.30
3699;DHT22;1865;50.918;7.092;2022-12-13T10:30:13;6.80;34.80
3699;DHT22;1865;50.918;7.092;2022-12-13T10:33:01;6.80;34.90
3699;DHT22;1865;50.918;7.092;2022-12-13T10:35:31;6.80;34.80
3699;DHT22;1865;50.918;7.092;2022-12-13T10:40:40;6.80;35.00
3699;DHT22;1865;50.918;7.092;2022-12-13T10:45:40;6.00;35.00
3699;DHT22;1865;50.918;7.092;2022-12-13T10:48:17;5.50;37.10
3699;DHT22;1865;50.918;7.092;2022-12-13T10:51:04;5.00;38.40
3699;DHT22;1865;50.918;7.092;2022-12-13T10:53:39;4.80;38.70
3699;DHT22;1865;50.918;7.092;2022-12-13T10:56:05;4.70;39.10
3699;DHT22;1865;50.918;7.092;2022-12-13T10:58:38;4.70;39.60
3699;DHT22;1865;50.918;7.092;2022-12-13T11:03:58;4.90;39.80
3699;DHT22;1865;50.918;7.092;2022-12-13T11:06:26;5.80;38.00
3699;DHT22;1865;50.918;7.092;2022-12-13T11:08:52;7.10;37.70
3699;DHT22;1865;50.918;7.092;2022-12-13T11:11:27;8.90;33.40
3699;DHT22;1865;50.918;7.092;2022-12-13T11:13:56;9.80;29.60
3699;DHT22;1865;50.918;7.092;2022-12-13T11:16:33;9.90;28.30
3699;DHT22;1865;50.918;7.092;2022-12-13T11:19:02;9.30;27.80
3699;DHT22;1865;50.918;7.092;2022-12-13T11:21:30;9.10;29.80
3699;DHT22;1865;50.918;7.092;2022-12-13T11:24:00;8.90;29.60
3699;DHT22;1865;50.918;7.092;2022-12-13T11:26:26;8.60;30.40
3699;DHT22;1865;50.918;7.092;2022-12-13T11:40:16;6.90;32.40
3699;DHT22;1865;50.918;7.092;2022-12-13T11:45:33;6.90;32.90
3699;DHT22;1865;50.918;7.092;2022-12-13T11:50:43;6.60;33.80
3699;DHT22;1865;50.918;7.092;2022-12-13T11:56:14;6.90;34.70
3699;DHT22;1865;50.918;7.092;2022-12-13T12:04:37;6.90;33.30
3699;DHT22;1865;50.918;7.092;2022-12-13T12:07:12;6.80;33.20
3699;DHT22;1865;50.918;7.092;2022-12-13T12:09:46;6.80;33.60
3699;DHT22;1865;50.918;7.092;2022-12-13T12:12:31;6.70;33.60
3699;DHT22;1865;50.918;7.092;2022-12-13T12:15:18;6.50;32.90
3699;DHT22;1865;50.918;7.092;2022-12-13T12:17:45;6.80;33.00
3699;DHT22;1865;50.918;7.092;2022-12-13T12:20:15;7.00;32.70
3699;DHT22;1865;50.918;7.092;2022-12-13T12:25:35;7.60;31.30
3699;DHT22;1865;50.918;7.092;2022-12-13T12:31:08;7.50;31.20
3699;DHT22;1865;50.918;7.092;2022-12-13T12:36:47;6.70;32.20
3699;DHT22;1865;50.918;7.092;2022-12-13T12:48:28;7.10;32.30
3699;DHT22;1865;50.918;7.092;2022-12-13T12:51:20;7.20;32.20
3699;DHT22;1865;50.918;7.092;2022-12-13T12:53:58;7.00;31.10
3699;DHT22;1865;50.918;7.092;2022-12-13T12:56:45;7.00;32.40
3699;DHT22;1865;50.918;7.092;2022-12-13T13:02:04;8.10;31.00
3699;DHT22;1865;50.918;7.092;2022-12-13T13:04:35;8.70;30.90
3699;DHT22;1865;50.918;7.092;2022-12-13T13:07:22;8.90;29.50
3699;DHT22;1865;50.918;7.092;2022-12-13T13:09:51;8.90;29.40
3699;DHT22;1865;50.918;7.092;2022-12-13T13:12:17;9.00;29.80
3699;DHT22;1865;50.918;7.092;2022-12-13T13:14:43;9.60;28.70
3699;DHT22;1865;50.918;7.092;2022-12-13T13:19:45;8.60;29.70
3699;DHT22;1865;50.918;7.092;2022-12-13T13:22:35;8.20;30.80
3699;DHT22;1865;50.918;7.092;2022-12-13T13:27:39;7.60;31.90
3699;DHT22;1865;50.918;7.092;2022-12-13T13:30:18;7.50;32.70
3699;DHT22;1865;50.918;7.092;2022-12-13T13:32:46;7.20;32.40
3699;DHT22;1865;50.918;7.092;2022-12-13T13:37:53;6.90;33.70
3699;DHT22;1865;50.918;7.092;2022-12-13T13:45:24;6.50;34.40
3699;DHT22;1865;50.918;7.092;2022-12-13T13:55:58;6.30;35.50
3699;DHT22;1865;50.918;7.092;2022-12-13T14:01:26;6.30;35.30
3699;DHT22;1865;50.918;7.092;2022-12-13T14:04:12;6.10;35.60
3699;DHT22;1865;50.918;7.092;2022-12-13T14:15:58;5.90;36.10
3699;DHT22;1865;50.918;7.092;2022-12-13T14:21:19;5.90;36.70
3699;DHT22;1865;50.918;7.092;2022-12-13T14:24:13;6.00;36.50
3699;DHT22;1865;50.918;7.092;2022-12-13T14:27:00;5.90;36.40
3699;DHT22;1865;50.918;7.092;2022-12-13T14:29:36;5.90;36.50
3699;DHT22;1865;50.918;7.092;2022-12-13T14:32:09;5.80;36.40
3699;DHT22;1865;50.918;7.092;2022-12-13T14:34:36;5.80;36.80
3699;DHT22;1865;50.918;7.092;2022-12-13T14:37:26;5.70;37.00
3699;DHT22;1865;50.918;7.092;2022-12-13T14:39:53;5.80;37.10
3699;DHT22;1865;50.918;7.092;2022-12-13T14:44:48;5.60;37.50
3699;DHT22;1865;50.918;7.092;2022-12-13T14:47:15;5.60;37.50
3699;DHT22;1865;50.918;7.092;2022-12-13T14:49:42;5.60;37.50
3699;DHT22;1865;50.918;7.092;2022-12-13T14:52:20;5.60;38.00
3699;DHT22;1865;50.918;7.092;2022-12-13T14:54:51;5.50;37.40
3699;DHT22;1865;50.918;7.092;2022-12-13T14:57:23;5.40;38.30
3699;DHT22;1865;50.918;7.092;2022-12-13T14:59:51;5.30;38.00
3699;DHT22;1865;50.918;7.092;2022-12-13T15:02:20;5.30;39.10
3699;DHT22;1865;50.918;7.092;2022-12-13T15:04:46;5.40;39.50
3699;DHT22;1865;50.918;7.092;2022-12-13T15:09:55;5.40;40.60
3699;DHT22;1865;50.918;7.092;2022-12-13T15:12:23;5.30;40.90
3699;DHT22;1865;50.918;7.092;2022-12-13T15:14:56;5.30;41.10
3699;DHT22;1865;50.918;7.092;2022-12-13T15:19:56;5.10;41.10
3699;DHT22;1865;50.918;7.092;2022-12-13T15:22:21;5.00;41.70
3699;DHT22;1865;50.918;7.092;2022-12-13T15:24:48;5.00;41.90
3699;DHT22;1865;50.918;7.092;2022-12-13T15:27:16;4.90;42.10
3699;DHT22;1865;50.918;7.092;2022-12-13T15:29:43;4.90;41.50
3699;DHT22;1865;50.918;7.092;2022-12-13T15:32:13;4.90;41.40
3699;DHT22;1865;50.918;7.092;2022-12-13T15:34:41;4.90;41.20
3699;DHT22;1865;50.918;7.092;2022-12-13T15:37:14;5.00;41.20
3699;DHT22;1865;50.918;7.092;2022-12-13T15:39:44;4.80;40.80
3699;DHT22;1865;50.918;7.092;2022-12-13T15:42:19;4.60;41.10
3699;DHT22;1865;50.918;7.092;2022-12-13T15:44:53;4.50;41.80
3699;DHT22;1865;50.918;7.092;2022-12-13T15:47:21;4.50;42.00
3699;DHT22;1865;50.918;7.092;2022-12-13T15:49:53;4.40;41.80
3699;DHT22;1865;50.918;7.092;2022-12-13T15:55:22;4.10;43.10
3699;DHT22;1865;50.918;7.092;2022-12-13T15:57:50;4.00;43.60
3699;DHT22;1865;50.918;7.092;2022-12-13T16:02:54;3.90;43.80
3699;DHT22;1865;50.918;7.092;2022-12-13T16:05:32;3.90;43.60
3699;DHT22;1865;50.918;7.092;2022-12-13T16:08:03;3.90;43.60
3699;DHT22;1865;50.918;7.092;2022-12-13T16:10:30;3.80;43.60
3699;DHT22;1865;50.918;7.092;2022-12-13T16:13:00;3.90;43.40
3699;DHT22;1865;50.918;7.092;2022-12-13T16:15:31;3.80;43.50
3699;DHT22;1865;50.918;7.092;2022-12-13T16:18:13;3.80;43.70
3699;DHT22;1865;50.918;7.092;2022-12-13T16:20:40;3.70;43.30
3699;DHT22;1865;50.918;7.092;2022-12-13T16:23:08;3.70;43.60
3699;DHT22;1865;50.918;7.092;2022-12-13T16:25:33;3.80;44.20
3699;DHT22;1865;50.918;7.092;2022-12-13T16:27:59;3.70;44.50
3699;DHT22;1865;50.918;7.092;2022-12-13T16:30:27;3.70;44.20
3699;DHT22;1865;50.918;7.092;2022-12-13T16:32:53;3.70;43.70
3699;DHT22;1865;50.918;7.092;2022-12-13T16:35:20;3.70;43.60
3699;DHT22;1865;50.918;7.092;2022-12-13T16:37:46;3.70;43.90
3699;DHT22;1865;50.918;7.092;2022-12-13T16:40:23;3.90;43.60
3699;DHT22;1865;50.918;7.092;2022-12-13T16:42:50;3.80;43.30
3699;DHT22;1865;50.918;7.092;2022-12-13T16:45:16;3.80;43.10
3699;DHT22;1865;50.918;7.092;2022-12-13T16:47:41;4.00;42.20
3699;DHT22;1865;50.918;7.092;2022-12-13T16:50:15;3.80;41.50
3699;DHT22;1865;50.918;7.092;2022-12-13T16:52:41;3.80;41.30
3699;DHT22;1865;50.918;7.092;2022-12-13T16:55:07;4.00;41.90
3699;DHT22;1865;50.918;7.092;2022-12-13T16:57:33;3.80;41.70
3699;DHT22;1865;50.918;7.092;2022-12-13T16:59:58;3.80;42.60
3699;DHT22;1865;50.918;7.092;2022-12-13T17:02:24;3.90;43.10
3699;DHT22;1865;50.918;7.092;2022-12-13T17:04:49;3.80;42.30
3699;DHT22;1865;50.918;7.092;2022-12-13T17:07:15;3.90;42.10
3699;DHT22;1865;50.918;7.092;2022-12-13T17:09:41;3.90;42.00
3699;DHT22;1865;50.918;7.092;2022-12-13T17:12:07;3.90;42.00
3699;DHT22;1865;50.918;7.092;2022-12-13T17:14:32;3.90;42.30
3699;DHT22;1865;50.918;7.092;2022-12-13T17:16:58;3.90;42.00
3699;DHT22;1865;50.918;7.092;2022-12-13T17:19:23;3.90;41.80
3699;DHT22;1865;50.918;7.092;2022-12-13T17:21:49;3.90;42.10
3699;DHT22;1865;50.918;7.092;2022-12-13T17:24:15;3.90;41.80
3699;DHT22;1865;50.918;7.092;2022-12-13T17:26:40;3.90;41.90
3699;DHT22;1865;50.918;7.092;2022-12-13T17:29:06;3.80;42.10
3699;DHT22;1865;50.918;7.092;2022-12-13T17:31:31;3.70;41.90
3699;DHT22;1865;50.918;7.092;2022-12-13T17:34:00;3.70;42.00
3699;DHT22;1865;50.918;7.092;2022-12-13T17:36:26;3.80;42.30
3699;DHT22;1865;50.918;7.092;2022-12-13T17:38:52;3.80;42.20
3699;DHT22;1865;50.918;7.092;2022-12-13T17:41:17;3.80;41.80
3699;DHT22;1865;50.918;7.092;2022-12-13T17:43:43;3.90;41.90
3699;DHT22;1865;50.918;7.092;2022-12-13T17:46:11;3.90;41.00
3699;DHT22;1865;50.918;7.092;2022-12-13T17:48:37;3.80;40.70
3699;DHT22;1865;50.918;7.092;2022-12-13T17:51:03;3.70;40.30
3699;DHT22;1865;50.918;7.092;2022-12-13T17:53:29;3.70;40.10
3699;DHT22;1865;50.918;7.092;2022-12-13T17:56:00;3.60;40.00
3699;DHT22;1865;50.918;7.092;2022-12-13T17:58:26;3.70;39.90
3699;DHT22;1865;50.918;7.092;2022-12-13T18:00:52;3.90;39.80
3699;DHT22;1865;50.918;7.092;2022-12-13T18:03:19;3.60;39.60
3699;DHT22;1865;50.918;7.092;2022-12-13T18:05:45;3.60;39.30
3699;DHT22;1865;50.918;7.092;2022-12-13T18:08:19;3.60;40.50
3699;DHT22;1865;50.918;7.092;2022-12-13T18:10:56;3.70;39.20
3699;DHT22;1865;50.918;7.092;2022-12-13T18:13:24;3.70;39.40
3699;DHT22;1865;50.918;7.092;2022-12-13T18:15:51;3.80;38.90
3699;DHT22;1865;50.918;7.092;2022-12-13T18:18:17;3.80;38.70
3699;DHT22;1865;50.918;7.092;2022-12-13T18:20:43;3.80;38.20
3699;DHT22;1865;50.918;7.092;2022-12-13T18:23:09;3.80;38.60
3699;DHT22;1865;50.918;7.092;2022-12-13T18:25:35;3.70;37.90
3699;DHT22;1865;50.918;7.092;2022-12-13T18:28:00;3.80;38.40
3699;DHT22;1865;50.918;7.092;2022-12-13T18:30:26;3.90;38.40
3699;DHT22;1865;50.918;7.092;2022-12-13T18:32:52;3.60;38.30
3699;DHT22;1865;50.918;7.092;2022-12-13T18:35:18;3.80;38.60
3699;DHT22;1865;50.918;7.092;2022-12-13T18:37:44;3.70;38.70